Time;durP1;ratioP1;P1;durP2;ratioP2;P2;SDS_P1;SDS_P2;PMS_P1;PMS_P2;Temp;Humidity;BMP_temperature;BMP_pressure;BME280_temperature;BME280_humidity;BME280_pressure;Samples;Min_cycle;Max_cycle;Signal;HPM_P1;HPM_P2
2022/02/28 00:00:20;;;;;;;3.30;2.80;;;16.00;82.20;;;;;;4221572;28;20218;-75
2022/02/28 00:02:22;;;;;;;4.82;3.00;;;16.00;82.20;;;;;;4225035;28;20222;-75
2022/02/28 00:04:25;;;;;;;4.10;2.90;;;16.00;82.20;;;;;;4226086;28;20865;-75
2022/02/28 00:06:27;;;;;;;3.10;2.80;;;16.00;82.20;;;;;;4224797;28;20314;-75
2022/02/28 00:08:30;;;;;;;4.05;2.85;;;16.00;82.20;;;;;;4225604;28;20233;-75
2022/02/28 00:10:32;;;;;;;3.58;2.72;;;16.00;82.10;;;;;;4225053;28;20243;-75
2022/02/28 00:12:36;;;;;;;4.07;2.72;;;16.00;82.20;;;;;;4225037;28;20226;-75
2022/02/28 00:14:39;;;;;;;2.88;2.38;;;16.00;82.20;;;;;;4222681;28;20241;-75
2022/02/28 00:16:43;;;;;;;4.25;3.00;;;16.00;82.10;;;;;;4224838;28;20326;-75
2022/02/28 00:18:45;;;;;;;3.83;2.65;;;16.00;82.90;;;;;;4224769;28;20214;-75
2022/02/28 00:20:47;;;;;;;4.25;2.85;;;16.00;82.20;;;;;;4224748;28;20210;-75
2022/02/28 00:22:51;;;;;;;3.30;2.55;;;16.00;82.20;;;;;;4223569;28;20206;-75
2022/02/28 00:24:53;;;;;;;3.58;2.80;;;16.00;82.20;;;;;;4224272;28;20210;-75
2022/02/28 00:26:55;;;;;;;4.05;2.75;;;16.00;82.20;;;;;;4225730;28;20255;-75
2022/02/28 00:28:58;;;;;;;3.47;2.88;;;15.90;82.10;;;;;;4228085;28;20267;-75
2022/02/28 00:31:00;;;;;;;3.78;2.70;;;16.00;82.20;;;;;;4228515;28;20217;-75
2022/02/28 00:33:05;;;;;;;3.50;2.83;;;15.90;82.10;;;;;;4228414;28;20213;-75
2022/02/28 00:35:09;;;;;;;3.58;3.00;;;15.90;82.00;;;;;;4227987;28;20234;-75
2022/02/28 00:37:11;;;;;;;3.20;2.72;;;15.90;82.10;;;;;;4228227;28;20258;-75
2022/02/28 00:39:13;;;;;;;3.83;3.13;;;15.90;82.10;;;;;;4228039;28;20258;-75
2022/02/28 00:41:16;;;;;;;3.50;2.78;;;15.90;82.10;;;;;;4226726;28;20217;-79
2022/02/28 00:43:18;;;;;;;4.13;2.90;;;15.90;82.10;;;;;;4229034;28;20307;-79
2022/02/28 00:45:21;;;;;;;4.32;2.70;;;15.90;82.10;;;;;;4225025;28;21229;-79
2022/02/28 00:47:23;;;;;;;4.00;2.63;;;15.90;82.10;;;;;;4225471;28;20691;-79
2022/02/28 00:49:27;;;;;;;3.90;2.93;;;15.80;82.00;;;;;;4224545;28;20264;-79
2022/02/28 00:51:29;;;;;;;4.22;2.80;;;15.90;82.10;;;;;;4227571;28;20313;-79
2022/02/28 00:53:32;;;;;;;3.50;2.70;;;15.90;82.10;;;;;;4229261;28;20218;-79
2022/02/28 00:55:34;;;;;;;3.65;2.72;;;15.90;82.90;;;;;;4227988;28;20689;-75
2022/02/28 00:57:37;;;;;;;4.20;2.72;;;15.90;82.10;;;;;;4226774;28;20214;-75
2022/02/28 00:59:39;;;;;;;3.47;2.75;;;15.90;82.20;;;;;;4228103;28;20658;-75
2022/02/28 01:01:41;;;;;;;4.05;3.08;;;15.90;82.10;;;;;;4227603;28;20259;-75
2022/02/28 01:03:44;;;;;;;3.65;2.72;;;15.90;82.10;;;;;;4227678;28;20214;-75
2022/02/28 01:05:48;;;;;;;4.70;2.63;;;15.90;82.10;;;;;;4227512;28;20623;-75
2022/02/28 01:07:51;;;;;;;3.85;2.85;;;15.90;82.20;;;;;;4227736;28;20259;-75
2022/02/28 01:09:53;;;;;;;4.13;2.85;;;15.90;82.10;;;;;;4227745;28;20218;-75
2022/02/28 01:11:56;;;;;;;3.47;2.50;;;15.90;82.10;;;;;;4228080;28;20210;-75
2022/02/28 01:13:58;;;;;;;5.17;2.80;;;15.90;82.10;;;;;;4220793;28;20636;-75
2022/02/28 01:16:01;;;;;;;4.70;3.17;;;15.90;82.10;;;;;;4220826;28;20218;-75
2022/02/28 01:18:03;;;;;;;4.05;2.65;;;15.80;82.00;;;;;;4231180;28;21687;-75
2022/02/28 01:20:07;;;;;;;3.03;2.60;;;15.80;82.00;;;;;;4227006;27;20205;-75
2022/02/28 01:22:11;;;;;;;3.72;2.70;;;15.80;82.00;;;;;;4227555;28;20225;-75
2022/02/28 01:24:14;;;;;;;3.57;2.30;;;15.80;82.00;;;;;;4230863;28;20627;-75
2022/02/28 01:26:16;;;;;;;4.32;2.80;;;15.80;82.00;;;;;;4231257;28;20566;-75
2022/02/28 01:28:19;;;;;;;4.10;2.72;;;15.90;82.10;;;;;;4230879;28;20666;-75
2022/02/28 01:30:21;;;;;;;3.90;2.75;;;15.80;82.00;;;;;;4230799;28;20209;-75
2022/02/28 01:32:23;;;;;;;3.83;3.00;;;15.80;82.00;;;;;;4229112;28;20247;-75
2022/02/28 01:34:26;;;;;;;3.85;2.83;;;15.80;82.00;;;;;;4230775;28;20237;-75
2022/02/28 01:36:29;;;;;;;3.38;2.55;;;15.80;82.10;;;;;;4230915;28;20259;-75
2022/02/28 01:38:33;;;;;;;4.80;3.05;;;15.80;82.00;;;;;;4231164;28;20209;-75
2022/02/28 01:40:36;;;;;;;5.18;2.85;;;15.80;82.00;;;;;;4230908;28;20282;-75
2022/02/28 01:42:39;;;;;;;4.00;3.20;;;15.70;81.80;;;;;;4230857;28;20687;-75
2022/02/28 01:44:41;;;;;;;3.60;2.70;;;15.80;82.00;;;;;;4230558;28;20263;-75
2022/02/28 01:46:44;;;;;;;3.40;2.45;;;15.80;82.00;;;;;;4230433;28;20217;-75
2022/02/28 01:48:46;;;;;;;3.23;2.70;;;15.80;81.90;;;;;;4230359;28;20258;-75
2022/02/28 01:50:49;;;;;;;3.83;2.83;;;15.80;81.70;;;;;;4228315;28;20271;-75
2022/02/28 01:52:52;;;;;;;3.13;2.63;;;15.70;81.80;;;;;;4230391;28;20218;-75
2022/02/28 01:54:55;;;;;;;4.03;2.60;;;15.70;81.70;;;;;;4230484;28;20387;-75
2022/02/28 01:56:58;;;;;;;4.00;3.10;;;15.70;81.50;;;;;;4230135;28;20269;-75
2022/02/28 01:59:00;;;;;;;4.15;2.88;;;15.70;81.70;;;;;;4230491;28;20258;-75
2022/02/28 02:01:03;;;;;;;3.53;2.85;;;15.70;81.80;;;;;;4230326;28;20214;-75
2022/02/28 02:03:06;;;;;;;3.13;2.80;;;15.70;81.70;;;;;;4230319;28;20680;-74
2022/02/28 02:05:09;;;;;;;3.15;2.72;;;15.70;81.60;;;;;;4230716;28;20255;-75
2022/02/28 02:07:11;;;;;;;3.60;2.47;;;15.70;81.70;;;;;;4229723;28;20706;-75
2022/02/28 02:09:14;;;;;;;5.00;3.10;;;15.70;81.70;;;;;;4230372;28;20615;-75
2022/02/28 02:11:19;;;;;;;3.70;3.10;;;15.70;81.60;;;;;;4230652;28;20217;-75
2022/02/28 02:13:22;;;;;;;4.03;3.08;;;15.70;81.70;;;;;;4229391;28;20217;-75
2022/02/28 02:15:24;;;;;;;4.18;2.90;;;15.70;81.60;;;;;;4229900;28;20258;-75
2022/02/28 02:17:27;;;;;;;3.17;2.87;;;15.70;81.50;;;;;;4230035;28;20274;-75
2022/02/28 02:19:30;;;;;;;4.90;3.30;;;15.70;81.40;;;;;;4230507;28;20218;-75
2022/02/28 02:21:33;;;;;;;3.43;2.73;;;15.70;81.50;;;;;;4230608;28;20214;-75
2022/02/28 02:23:36;;;;;;;3.22;2.85;;;15.70;81.50;;;;;;4230542;28;20205;-75
2022/02/28 02:25:39;;;;;;;3.33;2.55;;;15.70;81.30;;;;;;4227093;28;20233;-75
2022/02/28 02:27:41;;;;;;;4.32;2.88;;;15.70;81.20;;;;;;4229992;28;20610;-75
2022/02/28 02:29:43;;;;;;;4.18;2.90;;;15.70;81.30;;;;;;4230215;28;20708;-75
2022/02/28 02:31:45;;;;;;;3.67;2.55;;;15.70;81.30;;;;;;4230426;28;20258;-75
2022/02/28 02:33:48;;;;;;;3.53;2.87;;;15.70;81.40;;;;;;4229866;28;20218;-75
2022/02/28 02:35:52;;;;;;;3.77;2.97;;;15.70;81.20;;;;;;4231113;28;20754;-75
2022/02/28 02:37:56;;;;;;;3.70;2.83;;;15.70;81.40;;;;;;4231784;28;20598;-75
2022/02/28 02:39:58;;;;;;;3.50;2.63;;;15.70;81.80;;;;;;4230357;28;20546;-75
2022/02/28 02:42:01;;;;;;;3.97;2.75;;;15.70;81.30;;;;;;4223120;28;20259;-75
2022/02/28 02:44:03;;;;;;;4.00;2.70;;;15.70;81.30;;;;;;4224309;28;20214;-75
2022/02/28 02:46:06;;;;;;;4.03;2.92;;;15.70;81.00;;;;;;4231655;28;20967;-75
2022/02/28 02:48:13;;;;;;;2.73;2.17;;;15.70;80.80;;;;;;4231551;28;20214;-75
2022/02/28 02:50:15;;;;;;;3.45;2.60;;;15.60;80.90;;;;;;4231414;28;20217;-75
2022/02/28 02:52:18;;;;;;;3.53;2.60;;;15.70;81.00;;;;;;4231225;28;20669;-75
2022/02/28 02:54:22;;;;;;;3.63;2.83;;;15.60;81.20;;;;;;4230987;28;20245;-75
2022/02/28 02:56:24;;;;;;;3.17;2.67;;;15.60;81.10;;;;;;4231029;28;20230;-75
2022/02/28 02:58:26;;;;;;;4.27;2.80;;;15.60;81.00;;;;;;4231125;28;20555;-75
2022/02/28 03:00:28;;;;;;;3.25;2.72;;;15.60;81.20;;;;;;4228820;28;20255;-75
2022/02/28 03:02:32;;;;;;;3.42;2.55;;;15.60;80.90;;;;;;4213946;28;20211;-75
2022/02/28 03:04:35;;;;;;;4.13;2.80;;;15.60;80.80;;;;;;4214105;28;20214;-75
2022/02/28 03:06:37;;;;;;;4.43;3.30;;;15.60;80.80;;;;;;4214247;28;20608;-75
2022/02/28 03:08:39;;;;;;;4.53;3.03;;;15.60;80.40;;;;;;4215144;28;20222;-79
2022/02/28 03:10:43;;;;;;;3.13;2.70;;;15.60;80.60;;;;;;4215296;28;20271;-79
2022/02/28 03:12:46;;;;;;;3.73;2.77;;;15.60;80.70;;;;;;4214965;28;20218;-79
2022/02/28 03:14:48;;;;;;;5.97;3.03;;;15.60;81.00;;;;;;4215143;28;20234;-79
2022/02/28 03:16:50;;;;;;;4.35;3.30;;;15.60;81.00;;;;;;4215312;28;20234;-79
2022/02/28 03:18:52;;;;;;;3.22;2.65;;;15.60;80.70;;;;;;4218274;28;20615;-79
2022/02/28 03:20:55;;;;;;;3.08;2.58;;;15.60;80.40;;;;;;4215387;28;20272;-79
2022/02/28 03:22:57;;;;;;;3.83;2.70;;;15.60;80.50;;;;;;4224444;28;20221;-79
2022/02/28 03:24:59;;;;;;;4.57;2.90;;;15.60;80.40;;;;;;4232316;28;20235;-79
2022/02/28 03:27:04;;;;;;;3.93;2.53;;;15.60;80.50;;;;;;4232107;28;20214;-79
2022/02/28 03:29:06;;;;;;;3.93;2.53;;;15.60;80.50;;;;;;4231844;28;20217;-79
2022/02/28 03:31:09;;;;;;;3.55;2.60;;;15.60;80.50;;;;;;4231873;28;20221;-79
2022/02/28 03:33:11;;;;;;;2.88;2.55;;;15.60;80.80;;;;;;4231953;28;20217;-79
2022/02/28 03:35:13;;;;;;;3.78;2.95;;;15.60;80.50;;;;;;4226792;28;20209;-79
2022/02/28 03:37:16;;;;;;;3.10;2.63;;;15.60;80.70;;;;;;4230730;28;20218;-79
2022/02/28 03:39:18;;;;;;;3.03;2.60;;;15.60;80.90;;;;;;4231373;28;20210;-79
2022/02/28 03:41:21;;;;;;;4.23;3.20;;;15.60;80.80;;;;;;4231699;28;20263;-79
2022/02/28 03:43:24;;;;;;;3.63;2.60;;;15.60;80.80;;;;;;4216360;28;20677;-79
2022/02/28 03:45:27;;;;;;;3.30;2.72;;;15.50;80.80;;;;;;4231564;28;20214;-80
2022/02/28 03:47:29;;;;;;;3.53;2.77;;;15.50;80.60;;;;;;4231598;28;20213;-79
2022/02/28 03:49:31;;;;;;;3.87;2.80;;;15.60;80.70;;;;;;4231449;28;20235;-79
2022/02/28 03:51:34;;;;;;;3.10;2.73;;;15.60;80.90;;;;;;4231711;28;20259;-79
2022/02/28 03:53:36;;;;;;;3.57;2.57;;;15.60;80.80;;;;;;4221608;28;20210;-79
2022/02/28 03:55:39;;;;;;;4.67;2.90;;;15.50;81.20;;;;;;4217556;28;20210;-79
2022/02/28 03:57:41;;;;;;;3.40;2.67;;;15.50;80.00;;;;;;4214714;28;20222;-79
2022/02/28 03:59:45;;;;;;;3.90;2.40;;;15.50;80.60;;;;;;4214513;28;20211;-79
2022/02/28 04:01:47;;;;;;;3.50;2.53;;;15.50;80.60;;;;;;4214666;28;20248;-79
2022/02/28 04:03:50;;;;;;;3.87;2.90;;;15.50;80.50;;;;;;4214544;28;20260;-79
2022/02/28 04:05:52;;;;;;;4.20;2.97;;;15.50;80.50;;;;;;4212974;28;20625;-79
2022/02/28 04:07:54;;;;;;;4.30;3.10;;;15.50;80.10;;;;;;4225023;28;20259;-79
2022/02/28 04:09:57;;;;;;;3.00;2.67;;;15.50;80.30;;;;;;4229716;28;20218;-79
2022/02/28 04:11:59;;;;;;;3.97;3.00;;;15.50;80.20;;;;;;4226292;28;20210;-79
2022/02/28 04:14:01;;;;;;;4.10;2.97;;;15.50;80.50;;;;;;4227959;28;20218;-79
2022/02/28 04:16:05;;;;;;;4.20;2.80;;;15.50;80.40;;;;;;4229936;28;20749;-79
2022/02/28 04:18:08;;;;;;;4.50;3.07;;;15.50;80.40;;;;;;4230013;28;20266;-79
2022/02/28 04:20:11;;;;;;;4.93;2.70;;;15.50;80.10;;;;;;4230224;28;20217;-79
2022/02/28 04:22:13;;;;;;;3.50;2.80;;;15.50;80.30;;;;;;4230980;28;20255;-79
2022/02/28 04:24:15;;;;;;;2.57;2.37;;;15.50;80.20;;;;;;4230751;28;20671;-79
2022/02/28 04:26:18;;;;;;;3.43;2.60;;;15.50;80.20;;;;;;4231314;28;20658;-79
2022/02/28 04:28:21;;;;;;;3.63;3.17;;;15.50;80.20;;;;;;4228842;28;20723;-79
2022/02/28 04:30:23;;;;;;;5.50;3.10;;;15.50;80.20;;;;;;4222385;28;20294;-79
2022/02/28 04:32:27;;;;;;;3.67;2.73;;;15.50;80.10;;;;;;4224805;28;20213;-80
2022/02/28 04:34:29;;;;;;;3.10;2.70;;;15.50;80.90;;;;;;4214212;28;20214;-80
2022/02/28 04:36:32;;;;;;;3.97;2.93;;;15.50;80.20;;;;;;4213765;28;20303;-79
2022/02/28 04:38:34;;;;;;;3.03;2.73;;;15.50;80.30;;;;;;4213850;28;20267;-79
2022/02/28 04:40:37;;;;;;;3.63;2.90;;;15.50;80.20;;;;;;4214221;28;20214;-80
2022/02/28 04:42:39;;;;;;;4.10;2.87;;;15.50;80.10;;;;;;4224007;28;20251;-79
2022/02/28 04:44:41;;;;;;;3.33;2.77;;;15.50;80.00;;;;;;4231480;28;20633;-79
2022/02/28 04:46:44;;;;;;;3.97;2.90;;;15.50;80.00;;;;;;4231304;28;20213;-79
2022/02/28 04:48:47;;;;;;;4.30;2.60;;;15.50;80.10;;;;;;4223401;28;20214;-79
2022/02/28 04:50:55;;;;;;;3.90;2.80;;;15.40;80.00;;;;;;4217593;28;20658;-79
2022/02/28 04:52:57;;;;;;;4.67;2.90;;;15.40;79.80;;;;;;4217332;28;20251;-79
2022/02/28 04:54:59;;;;;;;3.83;3.00;;;15.40;80.00;;;;;;4217326;28;20218;-79
2022/02/28 04:57:01;;;;;;;3.47;2.90;;;15.50;80.00;;;;;;4217601;28;20569;-79
2022/02/28 04:59:04;;;;;;;3.63;2.70;;;15.50;80.30;;;;;;4217275;28;20278;-79
2022/02/28 05:01:06;;;;;;;3.97;2.73;;;15.50;80.20;;;;;;4217497;28;20589;-80
2022/02/28 05:03:08;;;;;;;3.20;2.80;;;15.40;80.10;;;;;;4217083;28;20267;-79
2022/02/28 05:05:12;;;;;;;4.17;2.80;;;15.40;80.20;;;;;;4217534;28;20240;-79
2022/02/28 05:07:15;;;;;;;4.47;2.70;;;15.40;80.70;;;;;;4233762;28;20202;-79
2022/02/28 05:09:17;;;;;;;3.57;2.80;;;15.50;80.20;;;;;;4234302;28;20662;-79
2022/02/28 05:11:20;;;;;;;3.17;2.47;;;15.40;79.90;;;;;;4234148;28;20267;-79
2022/02/28 05:13:22;;;;;;;4.23;3.17;;;15.40;80.50;;;;;;4234126;28;20213;-79
2022/02/28 05:15:24;;;;;;;4.43;3.10;;;15.40;80.20;;;;;;4233629;28;20225;-79
2022/02/28 05:17:26;;;;;;;4.03;2.97;;;15.40;80.30;;;;;;4233847;28;20286;-79
2022/02/28 05:19:29;;;;;;;3.93;2.67;;;15.40;80.10;;;;;;4233993;28;20218;-79
2022/02/28 05:21:33;;;;;;;5.33;2.93;;;15.40;80.10;;;;;;4231521;28;20213;-79
2022/02/28 05:23:35;;;;;;;3.43;2.80;;;15.40;80.10;;;;;;4226565;28;20214;-79
2022/02/28 05:25:37;;;;;;;3.70;2.80;;;15.40;80.40;;;;;;4234074;28;20214;-79
2022/02/28 05:27:41;;;;;;;3.50;3.03;;;15.40;80.00;;;;;;4233976;28;20213;-79
2022/02/28 05:29:43;;;;;;;3.90;3.10;;;15.40;80.00;;;;;;4233761;28;20609;-79
2022/02/28 05:31:45;;;;;;;4.20;2.87;;;15.40;80.00;;;;;;4221910;28;20330;-79
2022/02/28 05:33:48;;;;;;;3.33;2.63;;;15.40;80.00;;;;;;4217203;28;20244;-79
2022/02/28 05:35:50;;;;;;;3.23;2.87;;;15.30;80.00;;;;;;4217085;28;20625;-79
2022/02/28 05:37:54;;;;;;;3.80;2.87;;;15.40;80.00;;;;;;4216755;28;20256;-79
2022/02/28 05:39:56;;;;;;;3.30;2.90;;;15.40;80.00;;;;;;4225214;28;20271;-79
2022/02/28 05:41:58;;;;;;;4.73;3.07;;;15.40;79.70;;;;;;4234063;28;20256;-79
2022/02/28 05:44:01;;;;;;;4.17;2.63;;;15.40;79.60;;;;;;4233521;28;20221;-79
2022/02/28 05:46:03;;;;;;;5.57;2.93;;;15.40;79.70;;;;;;4233584;28;20218;-79
2022/02/28 05:48:07;;;;;;;3.83;2.73;;;15.30;79.90;;;;;;4233550;28;20660;-79
2022/02/28 05:50:10;;;;;;;3.73;2.53;;;15.30;79.80;;;;;;4233706;28;20213;-79
2022/02/28 05:52:13;;;;;;;4.33;2.87;;;15.30;79.80;;;;;;4233083;28;20217;-79
2022/02/28 05:54:16;;;;;;;4.00;2.93;;;15.20;80.10;;;;;;4226793;28;20541;-79
2022/02/28 05:56:19;;;;;;;3.10;2.40;;;14.90;80.80;;;;;;4229839;28;20540;-79
2022/02/28 05:58:21;;;;;;;3.23;2.93;;;14.80;81.00;;;;;;4218718;28;20242;-79
2022/02/28 06:00:24;;;;;;;4.60;2.70;;;14.70;81.60;;;;;;4215690;28;20259;-79
2022/02/28 06:02:26;;;;;;;3.37;2.73;;;14.70;81.50;;;;;;4216369;28;20214;-79
2022/02/28 06:04:28;;;;;;;3.97;2.80;;;14.90;81.00;;;;;;4216573;28;20206;-79
2022/02/28 06:06:31;;;;;;;3.57;2.70;;;15.10;81.20;;;;;;4216567;28;20240;-79
2022/02/28 06:08:33;;;;;;;3.90;2.47;;;15.30;80.70;;;;;;4216269;28;20215;-79
2022/02/28 06:10:37;;;;;;;4.57;2.93;;;15.40;81.30;;;;;;4216457;28;20210;-79
2022/02/28 06:12:39;;;;;;;3.43;2.60;;;15.50;81.60;;;;;;4216784;28;20210;-79
2022/02/28 06:14:42;;;;;;;4.40;2.90;;;15.50;80.40;;;;;;4215701;28;20283;-79
2022/02/28 06:16:44;;;;;;;4.25;2.70;;;15.60;80.00;;;;;;4215924;28;20215;-79
2022/02/28 06:18:46;;;;;;;3.77;2.70;;;15.60;80.00;;;;;;4228447;28;20212;-79
2022/02/28 06:20:49;;;;;;;3.90;2.83;;;15.60;79.70;;;;;;4233147;28;20218;-79
2022/02/28 06:22:51;;;;;;;3.73;2.90;;;15.60;79.50;;;;;;4233008;28;20210;-79
2022/02/28 06:24:53;;;;;;;3.43;2.77;;;15.70;79.50;;;;;;4233105;28;20217;-79
2022/02/28 06:27:00;;;;;;;4.23;2.77;;;15.70;79.80;;;;;;4232828;28;20263;-79
2022/02/28 06:29:02;;;;;;;3.67;2.87;;;15.70;80.50;;;;;;4232910;28;20271;-79
2022/02/28 06:31:05;;;;;;;3.13;2.70;;;15.70;79.50;;;;;;4230675;28;20272;-79
2022/02/28 06:33:07;;;;;;;4.30;3.03;;;15.80;80.70;;;;;;4217500;28;20260;-79
2022/02/28 06:35:10;;;;;;;3.20;2.73;;;15.80;80.00;;;;;;4215816;28;20259;-79
2022/02/28 06:37:12;;;;;;;2.80;2.47;;;15.80;79.70;;;;;;4215532;28;20242;-79
2022/02/28 06:39:15;;;;;;;3.50;2.80;;;15.80;80.20;;;;;;4215847;28;20276;-79
2022/02/28 06:41:17;;;;;;;4.00;2.80;;;15.80;79.40;;;;;;4215608;28;20214;-79
2022/02/28 06:43:22;;;;;;;3.73;2.57;;;15.80;79.70;;;;;;4215818;28;20559;-79
2022/02/28 06:45:24;;;;;;;7.20;2.90;;;15.80;79.50;;;;;;4215477;28;20279;-79
2022/02/28 06:47:27;;;;;;;3.77;2.97;;;15.90;80.00;;;;;;4215484;28;20210;-79
2022/02/28 06:49:29;;;;;;;4.23;2.30;;;15.90;79.80;;;;;;4215785;28;20928;-79
2022/02/28 06:51:31;;;;;;;4.23;3.03;;;15.80;79.80;;;;;;4215545;28;20264;-79
2022/02/28 06:53:34;;;;;;;3.73;2.87;;;15.90;80.30;;;;;;4215352;28;20226;-79
2022/02/28 06:55:40;;;;;;;4.90;2.80;;;15.90;80.20;;;;;;4215378;28;20265;-79
2022/02/28 06:57:42;;;;;;;3.40;2.78;;;15.90;80.00;;;;;;4215568;28;20351;-79
2022/02/28 06:59:46;;;;;;;3.97;2.53;;;15.90;79.90;;;;;;4215308;28;20222;-79
2022/02/28 07:01:48;;;;;;;3.60;2.43;;;15.90;79.90;;;;;;4215495;28;20240;-79
2022/02/28 07:03:51;;;;;;;2.85;2.50;;;15.90;80.50;;;;;;4215441;28;20244;-79
2022/02/28 07:05:57;;;;;;;2.65;2.42;;;15.90;82.00;;;;;;4215270;28;20695;-80
2022/02/28 07:08:00;;;;;;;3.37;2.83;;;15.90;80.80;;;;;;4220251;28;20205;-79
2022/02/28 07:10:02;;;;;;;3.78;2.80;;;16.00;80.10;;;;;;4215595;28;20218;-79
2022/02/28 07:12:06;;;;;;;4.85;2.95;;;16.00;81.30;;;;;;4215526;28;20252;-79
2022/02/28 07:14:08;;;;;;;3.22;2.60;;;16.00;81.20;;;;;;4214963;28;20226;-79
2022/02/28 07:16:12;;;;;;;3.20;2.37;;;16.00;81.80;;;;;;4215400;28;20215;-79
2022/02/28 07:18:15;;;;;;;4.22;3.00;;;16.00;82.10;;;;;;4215146;28;20260;-80
2022/02/28 07:20:18;;;;;;;2.97;2.40;;;16.00;81.30;;;;;;4215018;28;20267;-78
2022/02/28 07:22:20;;;;;;;4.03;2.80;;;16.00;80.40;;;;;;4218765;28;20232;-78
2022/02/28 07:24:23;;;;;;;4.03;2.53;;;16.00;80.50;;;;;;4221155;28;20271;-78
2022/02/28 07:26:25;;;;;;;4.93;2.60;;;16.00;80.30;;;;;;4213699;28;20222;-76
2022/02/28 07:28:28;;;;;;;9.87;3.50;;;16.00;81.00;;;;;;4213898;28;20622;-77
2022/02/28 07:30:30;;;;;;;5.53;2.50;;;16.10;81.30;;;;;;4215901;28;20214;-76
2022/02/28 07:32:34;;;;;;;3.88;2.45;;;16.10;81.20;;;;;;4230871;28;20239;-78
2022/02/28 07:34:36;;;;;;;6.30;2.40;;;16.10;81.50;;;;;;4215014;28;20248;-81
2022/02/28 07:36:38;;;;;;;6.18;3.08;;;16.10;82.80;;;;;;4214654;28;20732;-81
2022/02/28 07:38:41;;;;;;;4.23;2.80;;;16.20;82.10;;;;;;4214967;28;20291;-80
2022/02/28 07:40:43;;;;;;;4.80;2.33;;;16.20;82.20;;;;;;4222988;28;20263;-82
2022/02/28 07:42:46;;;;;;;7.68;3.10;;;16.20;82.40;;;;;;4225042;28;20217;-81
2022/02/28 07:44:48;;;;;;;6.77;3.50;;;16.30;82.10;;;;;;4222963;28;20210;-82
2022/02/28 07:46:50;;;;;;;3.00;2.50;;;16.30;82.70;;;;;;4215322;28;20241;-81
2022/02/28 07:48:54;;;;;;;3.65;2.60;;;16.30;82.90;;;;;;4215231;28;20264;-80
2022/02/28 07:50:56;;;;;;;3.50;2.50;;;16.30;82.70;;;;;;4215304;28;20214;-78
2022/02/28 07:52:59;;;;;;;12.73;3.58;;;16.30;82.60;;;;;;4213363;28;20210;-74
2022/02/28 07:55:01;;;;;;;11.75;3.35;;;16.30;87.80;;;;;;4213512;28;20215;-76
2022/02/28 07:57:04;;;;;;;11.50;3.53;;;16.20;90.70;;;;;;4213964;28;20215;-75
2022/02/28 07:59:07;;;;;;;6.13;2.90;;;16.20;88.90;;;;;;4213549;28;20234;-76
2022/02/28 08:01:09;;;;;;;9.02;3.10;;;16.40;90.90;;;;;;4213433;28;20214;-75
2022/02/28 08:03:11;;;;;;;11.50;3.63;;;16.40;91.80;;;;;;4221745;28;20217;-74
2022/02/28 08:05:15;;;;;;;15.70;3.67;;;16.50;92.40;;;;;;4220751;28;20222;-74
2022/02/28 08:07:18;;;;;;;16.42;3.55;;;16.70;91.70;;;;;;4225863;28;20206;-73
2022/02/28 08:09:21;;;;;;;7.63;3.35;;;16.70;92.10;;;;;;4215201;28;20218;-72
2022/02/28 08:11:24;;;;;;;11.13;3.63;;;16.90;92.50;;;;;;4218972;28;20262;-73
2022/02/28 08:13:29;;;;;;;13.55;3.28;;;17.10;92.30;;;;;;4218501;28;20274;-73
2022/02/28 08:15:31;;;;;;;12.73;3.45;;;17.30;91.10;;;;;;4223814;28;20229;-73
2022/02/28 08:17:35;;;;;;;13.45;3.35;;;17.50;90.40;;;;;;4223369;28;20298;-73
2022/02/28 08:19:37;;;;;;;7.15;3.30;;;17.60;90.10;;;;;;4219401;28;20226;-73
2022/02/28 08:21:41;;;;;;;13.15;3.50;;;17.60;89.80;;;;;;4219181;28;20213;-74
2022/02/28 08:23:44;;;;;;;9.85;3.25;;;17.70;87.90;;;;;;4204764;28;20932;-72
2022/02/28 08:25:47;;;;;;;8.90;3.08;;;17.80;88.90;;;;;;4214892;28;20263;-72
2022/02/28 08:27:50;;;;;;;5.53;2.85;;;17.90;88.30;;;;;;4220587;28;20711;-73
2022/02/28 08:29:52;;;;;;;10.80;3.53;;;18.00;87.20;;;;;;4221249;28;20222;-73
2022/02/28 08:31:55;;;;;;;9.63;3.00;;;18.20;86.40;;;;;;4221717;28;20219;-76
2022/02/28 08:33:59;;;;;;;6.75;2.80;;;18.30;87.40;;;;;;4221567;28;20240;-75
2022/02/28 08:36:02;;;;;;;7.40;2.92;;;18.40;87.50;;;;;;4223431;28;20623;-74
2022/02/28 08:38:05;;;;;;;5.28;3.10;;;18.40;87.60;;;;;;4220781;28;20614;-73
2022/02/28 08:40:09;;;;;;;8.32;3.10;;;18.40;87.50;;;;;;4221933;28;20262;-73
2022/02/28 08:42:11;;;;;;;6.45;3.00;;;18.40;87.70;;;;;;4221116;28;20217;-72
2022/02/28 08:44:13;;;;;;;7.75;3.05;;;18.40;87.70;;;;;;4219734;28;20658;-72
2022/02/28 08:46:16;;;;;;;6.07;3.10;;;18.50;87.60;;;;;;4221088;28;20226;-71
2022/02/28 08:48:29;;;;;;;8.88;2.83;;;18.60;87.40;;;;;;4220510;28;20696;-70
2022/02/28 08:50:31;;;;;;;6.72;2.70;;;18.70;87.30;;;;;;4224046;28;20627;-72
2022/02/28 08:52:34;;;;;;;4.93;3.00;;;18.70;87.00;;;;;;4221757;28;20221;-73
2022/02/28 08:54:37;;;;;;;5.40;3.00;;;18.70;87.00;;;;;;4219786;28;20930;-72
2022/02/28 08:56:40;;;;;;;6.47;2.85;;;18.70;87.20;;;;;;4222767;28;20213;-75
2022/02/28 08:58:42;;;;;;;5.88;3.20;;;18.80;87.30;;;;;;4220842;28;20751;-73
2022/02/28 09:00:44;;;;;;;4.57;3.08;;;18.80;87.30;;;;;;4220579;28;20206;-72
2022/02/28 09:02:47;;;;;;;6.07;3.17;;;18.90;87.20;;;;;;4223889;28;20255;-73
2022/02/28 09:04:50;;;;;;;4.80;2.80;;;19.00;86.80;;;;;;4219567;28;20211;-72
2022/02/28 09:06:53;;;;;;;4.93;3.03;;;19.00;86.80;;;;;;4221081;28;20267;-73
2022/02/28 09:08:55;;;;;;;4.25;2.95;;;19.00;86.20;;;;;;4221460;28;20211;-73
2022/02/28 09:10:59;;;;;;;6.32;2.80;;;19.00;85.60;;;;;;4223569;28;20217;-73
2022/02/28 09:13:02;;;;;;;6.90;3.20;;;19.10;86.80;;;;;;4221913;28;20225;-75
2022/02/28 09:15:05;;;;;;;4.68;2.85;;;19.00;87.00;;;;;;4222446;28;20638;-73
2022/02/28 09:17:07;;;;;;;5.60;3.00;;;19.10;87.00;;;;;;4218105;28;20267;-72
2022/02/28 09:19:10;;;;;;;6.97;2.85;;;19.20;87.00;;;;;;4222892;28;20358;-72
2022/02/28 09:21:12;;;;;;;7.00;3.10;;;19.20;86.30;;;;;;4221240;28;20218;-73
2022/02/28 09:23:14;;;;;;;7.25;2.95;;;19.30;86.30;;;;;;4218084;28;20264;-71
2022/02/28 09:25:18;;;;;;;5.05;3.20;;;19.30;86.40;;;;;;4217458;28;20275;-74
2022/02/28 09:27:21;;;;;;;6.00;3.08;;;19.20;86.50;;;;;;4221971;28;20214;-76
2022/02/28 09:29:24;;;;;;;8.75;3.50;;;19.10;87.80;;;;;;4223035;28;20926;-75
2022/02/28 09:31:26;;;;;;;4.07;2.38;;;19.10;87.70;;;;;;4221666;28;20217;-75
2022/02/28 09:33:28;;;;;;;7.68;2.97;;;19.10;87.80;;;;;;4222697;28;20211;-72
2022/02/28 09:35:31;;;;;;;4.35;2.78;;;19.10;87.10;;;;;;4222078;28;20670;-71
2022/02/28 09:37:33;;;;;;;7.13;2.78;;;19.10;87.50;;;;;;4223153;28;20266;-73
2022/02/28 09:39:35;;;;;;;4.28;2.90;;;19.10;88.70;;;;;;4224700;28;20234;-72
2022/02/28 09:41:38;;;;;;;4.47;2.85;;;19.10;90.00;;;;;;4225113;28;20247;-75
2022/02/28 09:43:42;;;;;;;5.20;2.85;;;19.10;90.10;;;;;;4222009;27;20210;-75
2022/02/28 09:45:46;;;;;;;5.10;3.20;;;19.10;90.00;;;;;;4214463;27;20218;-73
2022/02/28 09:47:49;;;;;;;4.00;2.40;;;19.00;87.70;;;;;;4225161;28;20218;-72
2022/02/28 09:49:52;;;;;;;7.97;2.90;;;19.20;87.70;;;;;;4226258;28;20244;-73
2022/02/28 09:51:54;;;;;;;6.47;2.95;;;19.40;87.70;;;;;;4222239;27;20286;-72
2022/02/28 09:53:57;;;;;;;7.30;2.90;;;19.50;87.20;;;;;;4224793;28;20214;-72
2022/02/28 09:55:59;;;;;;;6.93;3.08;;;19.60;87.40;;;;;;4224031;27;20285;-73
2022/02/28 09:58:01;;;;;;;7.97;3.10;;;19.60;88.00;;;;;;4220862;27;20210;-75
2022/02/28 10:00:07;;;;;;;6.30;2.67;;;19.60;87.00;;;;;;4223121;27;20749;-73
2022/02/28 10:02:10;;;;;;;7.40;2.80;;;19.50;86.70;;;;;;4222619;28;20942;-77
2022/02/28 10:04:14;;;;;;;5.22;2.78;;;19.60;87.10;;;;;;4222177;28;20209;-78
2022/02/28 10:06:16;;;;;;;8.27;2.90;;;19.70;86.80;;;;;;4224903;28;20217;-77
2022/02/28 10:08:19;;;;;;;6.97;2.75;;;19.60;86.00;;;;;;4225723;28;20243;-78
2022/02/28 10:10:22;;;;;;;4.20;2.83;;;19.60;88.00;;;;;;4226252;28;20206;-79
2022/02/28 10:12:31;;;;;;;6.00;3.03;;;19.80;87.50;;;;;;4229073;28;20630;-80
2022/02/28 10:14:33;;;;;;;6.22;2.83;;;19.80;88.10;;;;;;4210782;28;20764;-79
2022/02/28 10:16:38;;;;;;;6.28;3.15;;;19.80;87.20;;;;;;4227526;28;20263;-78
2022/02/28 10:18:44;;;;;;;6.10;2.70;;;19.90;87.00;;;;;;4224849;28;20255;-74
2022/02/28 10:20:47;;;;;;;5.28;2.95;;;19.90;86.90;;;;;;4226536;27;20230;-77
2022/02/28 10:22:54;;;;;;;5.75;2.70;;;19.90;87.20;;;;;;4227860;28;20210;-75
2022/02/28 10:24:57;;;;;;;6.75;2.90;;;20.00;86.70;;;;;;4220649;27;20313;-73
2022/02/28 10:26:59;;;;;;;5.22;3.10;;;20.00;87.30;;;;;;4224488;28;20267;-75
2022/02/28 10:29:05;;;;;;;7.68;3.05;;;20.00;86.60;;;;;;4225342;28;20260;-72
2022/02/28 10:31:08;;;;;;;6.45;3.25;;;20.00;86.60;;;;;;4228594;27;20626;-75
2022/02/28 10:33:14;;;;;;;4.68;2.72;;;20.00;87.80;;;;;;4224460;27;20626;-72
2022/02/28 10:37:44;;;;;;;6.00;2.40;;;20.00;86.60;;;;;;4223883;28;20198;-77
2022/02/28 10:39:58;;;;;;;5.80;2.60;;;20.00;86.50;;;;;;4225947;28;20255;-79